Time;durP1;ratioP1;P1;durP2;ratioP2;P2;SDS_P1;SDS_P2;PMS_P1;PMS_P2;Temp;Humidity;BMP_temperature;BMP_pressure;BME280_temperature;BME280_humidity;BME280_pressure;Samples;Min_cycle;Max_cycle;Signal;HPM_P1;HPM_P2
2023/10/22 00:00:25;;;;;;;4.18;2.17;;;3.10;99.90;;;;;;5087880;28;20194;-87
2023/10/22 00:02:53;;;;;;;3.28;1.85;;;3.00;99.90;;;;;;5085744;28;20218;-88
2023/10/22 00:05:21;;;;;;;3.42;2.00;;;3.10;99.90;;;;;;5082977;28;20646;-88
2023/10/22 00:07:48;;;;;;;4.28;2.38;;;3.10;99.90;;;;;;5071963;28;20223;-88
2023/10/22 00:10:16;;;;;;;6.35;2.50;;;3.10;99.90;;;;;;5071689;28;20680;-89
2023/10/22 00:12:47;;;;;;;4.53;2.33;;;3.10;99.90;;;;;;5070523;28;20199;-88
2023/10/22 00:15:15;;;;;;;3.97;1.85;;;3.10;99.90;;;;;;5086847;28;20203;-89
2023/10/22 00:17:43;;;;;;;4.75;2.30;;;3.10;99.90;;;;;;5088565;28;20188;-88
2023/10/22 00:20:11;;;;;;;4.63;2.30;;;3.10;99.90;;;;;;5087322;28;20192;-89
2023/10/22 00:22:39;;;;;;;4.78;2.55;;;3.10;99.90;;;;;;5068563;28;20189;-88
2023/10/22 00:25:07;;;;;;;4.00;2.47;;;3.20;99.90;;;;;;5087596;28;20195;-89
2023/10/22 00:27:35;;;;;;;4.22;2.40;;;3.10;99.90;;;;;;5088929;28;20677;-89
2023/10/22 00:30:05;;;;;;;3.75;2.28;;;3.20;99.90;;;;;;5086690;28;20820;-89
2023/10/22 00:32:33;;;;;;;5.03;2.63;;;3.20;99.90;;;;;;5067735;28;20188;-87
2023/10/22 00:35:04;;;;;;;3.53;2.00;;;3.20;99.90;;;;;;5074410;28;20323;-89
2023/10/22 00:37:32;;;;;;;3.17;2.17;;;3.20;99.90;;;;;;5071166;28;20176;-88
2023/10/22 00:39:59;;;;;;;4.20;2.53;;;3.20;99.90;;;;;;5088321;28;20191;-88
2023/10/22 00:42:27;;;;;;;3.78;2.33;;;3.20;99.90;;;;;;5087041;28;20215;-87
2023/10/22 00:44:55;;;;;;;3.25;1.80;;;3.20;99.90;;;;;;5083626;28;20200;-89
2023/10/22 00:47:23;;;;;;;6.97;3.03;;;3.20;99.90;;;;;;5062331;28;20245;-90
2023/10/22 00:49:51;;;;;;;5.78;3.03;;;3.20;99.90;;;;;;5076220;28;20211;-88
2023/10/22 00:52:20;;;;;;;3.35;2.03;;;3.20;99.90;;;;;;5083661;28;20211;-87
2023/10/22 00:54:48;;;;;;;4.00;2.40;;;3.20;99.90;;;;;;5058345;28;20207;-89
2023/10/22 00:57:16;;;;;;;3.70;2.30;;;3.20;99.90;;;;;;5074874;28;20271;-88
2023/10/22 00:59:44;;;;;;;3.75;2.15;;;3.20;99.90;;;;;;5052897;28;20177;-88
2023/10/22 01:02:12;;;;;;;4.00;2.33;;;3.20;99.90;;;;;;5066201;28;20197;-88
2023/10/22 01:04:40;;;;;;;3.13;2.10;;;3.30;99.90;;;;;;5084347;28;20196;-89
2023/10/22 01:07:08;;;;;;;4.07;2.28;;;3.20;99.90;;;;;;5083104;28;20216;-88
2023/10/22 01:09:35;;;;;;;3.92;2.67;;;3.30;99.90;;;;;;5091844;28;20206;-89
2023/10/22 01:12:05;;;;;;;4.57;2.47;;;3.30;99.90;;;;;;5096314;28;20216;-88
2023/10/22 01:14:34;;;;;;;5.43;2.95;;;3.30;99.90;;;;;;5081855;28;21013;-90
2023/10/22 01:17:02;;;;;;;4.80;2.83;;;3.30;99.90;;;;;;5082501;28;20191;-89
2023/10/22 01:19:31;;;;;;;4.63;2.70;;;3.30;99.90;;;;;;5064892;28;20278;-89
2023/10/22 01:21:59;;;;;;;3.63;2.30;;;3.30;99.90;;;;;;5051815;28;20246;-89
2023/10/22 01:24:30;;;;;;;4.65;2.95;;;3.30;99.90;;;;;;5050261;28;20192;-89
2023/10/22 01:26:59;;;;;;;4.75;2.45;;;3.30;99.90;;;;;;5064129;28;20192;-88
2023/10/22 01:29:26;;;;;;;4.43;2.42;;;3.30;99.90;;;;;;5067779;28;20246;-88
2023/10/22 01:31:54;;;;;;;4.68;2.03;;;3.30;99.90;;;;;;5066492;28;20200;-89
2023/10/22 01:34:22;;;;;;;4.85;2.97;;;3.30;99.90;;;;;;5085460;28;20483;-88
2023/10/22 01:36:49;;;;;;;4.38;2.55;;;3.40;99.90;;;;;;5081933;28;20277;-89
2023/10/22 01:39:18;;;;;;;4.70;3.03;;;3.30;99.90;;;;;;5078916;28;20191;-88
2023/10/22 01:41:46;;;;;;;6.15;2.65;;;3.40;99.90;;;;;;5082401;28;20188;-88
2023/10/22 01:44:14;;;;;;;3.72;2.35;;;3.40;99.90;;;;;;5066618;28;20299;-89
2023/10/22 01:46:42;;;;;;;5.38;2.58;;;3.40;99.90;;;;;;5079369;28;20192;-88
2023/10/22 01:49:09;;;;;;;4.93;2.92;;;3.40;99.90;;;;;;5053790;28;20192;-89
2023/10/22 01:51:37;;;;;;;5.75;3.00;;;3.40;99.90;;;;;;5082622;28;20193;-88
2023/10/22 01:54:06;;;;;;;3.38;2.30;;;3.40;99.90;;;;;;5084622;28;20220;-87
2023/10/22 01:56:34;;;;;;;5.18;2.72;;;3.40;99.90;;;;;;5085170;28;20191;-88
2023/10/22 01:59:02;;;;;;;4.80;2.88;;;3.40;99.90;;;;;;5066215;28;20192;-88
2023/10/22 02:01:30;;;;;;;4.97;2.58;;;3.40;99.90;;;;;;5053540;28;20322;-88
2023/10/22 02:03:57;;;;;;;5.93;3.20;;;3.40;99.90;;;;;;5082615;28;20202;-88
2023/10/22 02:06:25;;;;;;;5.00;2.60;;;3.40;99.90;;;;;;5084426;28;20666;-88
2023/10/22 02:08:53;;;;;;;4.82;2.28;;;3.40;99.90;;;;;;5082656;28;20188;-88
2023/10/22 02:11:21;;;;;;;4.32;2.70;;;3.40;99.90;;;;;;5072342;28;20264;-88
2023/10/22 02:13:49;;;;;;;4.30;2.67;;;3.40;99.90;;;;;;5084889;28;20204;-88
2023/10/22 02:16:17;;;;;;;4.68;2.25;;;3.40;99.90;;;;;;5082190;28;20284;-87
2023/10/22 02:18:45;;;;;;;7.18;3.03;;;3.40;99.90;;;;;;5053968;28;20647;-89
2023/10/22 02:21:13;;;;;;;4.28;2.40;;;3.40;99.90;;;;;;5060857;28;20950;-89
2023/10/22 02:23:41;;;;;;;3.28;2.20;;;3.50;99.90;;;;;;5069402;28;20192;-89
2023/10/22 02:26:09;;;;;;;5.72;3.17;;;3.50;99.90;;;;;;5068757;28;20249;-87
2023/10/22 02:28:36;;;;;;;6.35;3.00;;;3.50;99.90;;;;;;5086504;28;20236;-89
2023/10/22 02:31:04;;;;;;;4.47;2.80;;;3.50;99.90;;;;;;5070754;28;20181;-90
2023/10/22 02:33:33;;;;;;;4.68;2.75;;;3.50;99.90;;;;;;5060749;28;20290;-89
2023/10/22 02:36:01;;;;;;;2.92;2.00;;;3.50;99.90;;;;;;5078965;28;20191;-89
2023/10/22 02:38:29;;;;;;;4.75;2.78;;;3.50;99.90;;;;;;5068153;28;20613;-89
2023/10/22 02:40:57;;;;;;;4.35;2.95;;;3.50;99.90;;;;;;5066436;28;20246;-89
2023/10/22 02:43:25;;;;;;;4.20;2.25;;;3.50;99.90;;;;;;5065667;28;20203;-88
2023/10/22 02:45:54;;;;;;;4.70;2.85;;;3.50;99.90;;;;;;5074276;28;20615;-89
2023/10/22 02:48:25;;;;;;;3.63;2.13;;;3.50;99.90;;;;;;5084099;28;20210;-88
2023/10/22 02:50:53;;;;;;;3.90;2.38;;;3.50;99.90;;;;;;5082855;28;20188;-88
2023/10/22 02:53:21;;;;;;;5.30;2.70;;;3.50;99.90;;;;;;5080634;28;20846;-88
2023/10/22 02:56:02;;;;;;;4.53;2.88;;;3.50;99.90;;;;;;5083060;28;20188;-89
2023/10/22 02:58:30;;;;;;;4.07;2.72;;;3.50;99.90;;;;;;5084870;28;20195;-88
2023/10/22 03:01:09;;;;;;;4.50;2.75;;;3.50;99.90;;;;;;5090050;28;20187;-88
2023/10/22 03:03:41;;;;;;;7.65;2.92;;;3.50;99.90;;;;;;5088721;28;20188;-88
2023/10/22 03:06:10;;;;;;;5.63;3.28;;;3.50;99.90;;;;;;5071877;28;20196;-89
2023/10/22 03:08:40;;;;;;;4.28;2.72;;;3.60;99.90;;;;;;5078743;28;20250;-89
2023/10/22 03:11:19;;;;;;;4.50;2.63;;;3.60;99.90;;;;;;5086647;28;20287;-89
2023/10/22 03:13:50;;;;;;;5.28;2.95;;;3.60;99.90;;;;;;5089476;28;20192;-89
2023/10/22 03:16:19;;;;;;;4.30;2.53;;;3.50;99.90;;;;;;5085614;28;20195;-88
2023/10/22 03:18:47;;;;;;;4.32;2.95;;;3.50;99.90;;;;;;5081432;28;20180;-89
2023/10/22 03:21:17;;;;;;;6.43;3.55;;;3.60;99.90;;;;;;5085804;28;20193;-88
2023/10/22 03:23:48;;;;;;;5.00;2.55;;;3.60;99.90;;;;;;5087378;28;20196;-89
2023/10/22 03:26:17;;;;;;;4.18;3.10;;;3.60;99.90;;;;;;5084833;28;20304;-88
2023/10/22 03:28:46;;;;;;;6.97;3.47;;;3.50;99.90;;;;;;5085270;28;20200;-89
2023/10/22 03:31:14;;;;;;;7.63;3.92;;;3.50;99.90;;;;;;5085859;28;20220;-89
2023/10/22 03:33:42;;;;;;;5.60;2.63;;;3.60;99.90;;;;;;5055732;28;20314;-88
2023/10/22 03:36:11;;;;;;;5.05;3.10;;;3.60;99.90;;;;;;5076979;28;20184;-87
2023/10/22 03:38:40;;;;;;;5.75;2.92;;;3.50;99.90;;;;;;5079311;28;20542;-89
2023/10/22 03:41:08;;;;;;;4.95;3.20;;;3.60;99.90;;;;;;5089687;28;20183;-89
2023/10/22 03:43:36;;;;;;;6.70;3.60;;;3.60;99.90;;;;;;5054482;28;20197;-89
2023/10/22 03:46:04;;;;;;;4.38;3.00;;;3.60;99.90;;;;;;5068593;28;20195;-88
2023/10/22 03:48:32;;;;;;;5.53;2.95;;;3.60;99.90;;;;;;5051487;28;20562;-88
2023/10/22 03:51:00;;;;;;;4.75;2.78;;;3.60;99.90;;;;;;5070282;28;20257;-89
2023/10/22 03:53:28;;;;;;;5.07;2.97;;;3.60;99.90;;;;;;5068395;28;20204;-90
2023/10/22 03:55:56;;;;;;;5.40;3.05;;;3.60;99.90;;;;;;5051807;28;20195;-90
2023/10/22 03:58:25;;;;;;;5.90;2.88;;;3.60;99.90;;;;;;5070891;28;20585;-89
2023/10/22 04:00:54;;;;;;;4.45;2.72;;;3.60;99.90;;;;;;5085254;28;20246;-89
2023/10/22 04:03:22;;;;;;;4.43;2.83;;;3.60;99.90;;;;;;5068007;28;20242;-89
2023/10/22 04:05:57;;;;;;;6.68;2.78;;;3.60;99.90;;;;;;5071270;28;20200;-89
2023/10/22 04:08:25;;;;;;;5.68;2.95;;;3.60;99.90;;;;;;5069819;28;20176;-89
2023/10/22 04:10:53;;;;;;;4.43;2.30;;;3.60;99.90;;;;;;5075174;28;20192;-90
2023/10/22 04:13:22;;;;;;;4.45;2.90;;;3.70;99.90;;;;;;5071899;28;20192;-88
2023/10/22 04:15:51;;;;;;;5.22;3.05;;;3.60;99.90;;;;;;5072793;28;20273;-89
2023/10/22 04:18:19;;;;;;;5.00;2.92;;;3.60;99.90;;;;;;5082520;28;20278;-90
2023/10/22 04:20:48;;;;;;;5.25;3.22;;;3.70;99.90;;;;;;5087930;28;20203;-89
2023/10/22 04:23:16;;;;;;;6.53;2.65;;;3.60;99.90;;;;;;5076921;28;20189;-90
2023/10/22 04:25:45;;;;;;;4.30;2.85;;;3.70;99.90;;;;;;5067446;28;20199;-89
2023/10/22 04:28:14;;;;;;;4.68;2.67;;;3.70;99.90;;;;;;5068152;28;20671;-90
2023/10/22 04:30:46;;;;;;;5.80;2.28;;;3.70;99.90;;;;;;5075220;28;20184;-89
2023/10/22 04:33:14;;;;;;;4.40;2.67;;;3.70;99.90;;;;;;5079525;28;20195;-88
2023/10/22 04:35:42;;;;;;;4.20;2.75;;;3.60;99.90;;;;;;5075349;28;20807;-88
2023/10/22 04:38:10;;;;;;;5.13;2.60;;;3.60;99.90;;;;;;5059031;28;20192;-89
2023/10/22 04:40:37;;;;;;;3.67;2.28;;;3.70;99.90;;;;;;5072489;28;20220;-89
2023/10/22 04:43:05;;;;;;;3.83;2.40;;;3.60;99.90;;;;;;5067949;28;20227;-87
2023/10/22 04:45:33;;;;;;;6.13;2.35;;;3.70;99.90;;;;;;5067274;28;20685;-89
2023/10/22 04:48:01;;;;;;;5.63;3.17;;;3.70;99.90;;;;;;5059699;28;20196;-88
2023/10/22 04:50:29;;;;;;;4.68;2.50;;;3.70;99.90;;;;;;5061804;28;20283;-88
2023/10/22 04:52:57;;;;;;;4.15;2.45;;;3.70;99.90;;;;;;5070585;28;20188;-89
2023/10/22 04:55:25;;;;;;;3.65;2.33;;;3.70;99.90;;;;;;5086695;28;20214;-89
2023/10/22 04:57:54;;;;;;;4.20;2.30;;;3.70;99.90;;;;;;5083336;28;20188;-88
2023/10/22 05:00:22;;;;;;;3.65;2.38;;;3.70;99.90;;;;;;5062222;28;20215;-90
2023/10/22 05:02:50;;;;;;;6.22;2.72;;;3.70;99.90;;;;;;5083592;28;20188;-89
2023/10/22 05:05:19;;;;;;;7.97;2.78;;;3.70;99.90;;;;;;5068704;28;20689;-89
2023/10/22 05:07:49;;;;;;;7.72;2.85;;;3.70;99.90;;;;;;5085823;28;20677;-89
2023/10/22 05:10:17;;;;;;;5.72;3.03;;;3.70;99.90;;;;;;5067905;28;20465;-89
2023/10/22 05:12:45;;;;;;;4.32;2.33;;;3.80;99.90;;;;;;5073992;28;20193;-88
2023/10/22 05:15:13;;;;;;;11.50;3.20;;;3.80;99.90;;;;;;5083266;28;20214;-88
2023/10/22 05:17:41;;;;;;;5.35;2.80;;;3.70;99.90;;;;;;5071126;28;20196;-87
2023/10/22 05:20:09;;;;;;;6.15;3.00;;;3.80;99.90;;;;;;5083580;28;20732;-88
2023/10/22 05:22:36;;;;;;;8.43;3.53;;;3.80;99.90;;;;;;5083640;28;20214;-89
2023/10/22 05:25:05;;;;;;;15.88;4.25;;;3.80;99.90;;;;;;5067094;28;20192;-89
2023/10/22 05:27:33;;;;;;;4.47;2.67;;;3.80;99.90;;;;;;5083898;28;20180;-89
2023/10/22 05:30:00;;;;;;;9.00;3.30;;;3.80;99.90;;;;;;5084623;28;20833;-90
2023/10/22 05:32:28;;;;;;;6.78;2.75;;;3.80;99.90;;;;;;5069581;28;20889;-88
2023/10/22 05:34:56;;;;;;;26.25;4.10;;;3.80;99.90;;;;;;5087493;28;20239;-90
2023/10/22 05:37:24;;;;;;;6.78;3.30;;;3.80;99.90;;;;;;5064345;28;20211;-89
2023/10/22 05:39:53;;;;;;;4.57;2.65;;;3.80;99.90;;;;;;5085421;28;20203;-88
2023/10/22 05:42:24;;;;;;;6.28;3.08;;;3.80;99.90;;;;;;5085932;28;20260;-89
2023/10/22 05:44:54;;;;;;;34.60;4.32;;;3.80;99.90;;;;;;5080952;28;20204;-88
2023/10/22 05:47:23;;;;;;;4.50;2.70;;;3.80;99.90;;;;;;5066089;28;20192;-88
2023/10/22 05:49:51;;;;;;;6.13;3.10;;;3.80;99.90;;;;;;5083957;28;20203;-89
2023/10/22 05:52:19;;;;;;;4.97;2.90;;;3.80;99.90;;;;;;5082647;28;20188;-87
2023/10/22 05:54:47;;;;;;;5.93;3.50;;;3.80;99.90;;;;;;5080007;28;20203;-89
2023/10/22 05:57:15;;;;;;;11.32;3.35;;;3.80;99.90;;;;;;5086731;28;20241;-88
2023/10/22 05:59:49;;;;;;;15.32;3.25;;;3.80;99.90;;;;;;5084383;28;20180;-88
2023/10/22 06:02:18;;;;;;;5.72;3.35;;;3.90;99.90;;;;;;5085457;28;20184;-87
2023/10/22 06:04:46;;;;;;;15.75;3.30;;;3.90;99.90;;;;;;5084934;28;20192;-89
2023/10/22 06:07:13;;;;;;;30.40;5.10;;;3.90;99.90;;;;;;5068613;28;20270;-88
2023/10/22 06:09:47;;;;;;;6.15;3.00;;;3.90;99.90;;;;;;5083129;28;20292;-88
2023/10/22 06:12:15;;;;;;;11.48;3.25;;;3.90;99.90;;;;;;5084823;28;20222;-87
2023/10/22 06:14:44;;;;;;;4.18;2.67;;;3.90;99.90;;;;;;5067597;28;20204;-88
2023/10/22 06:17:13;;;;;;;21.23;3.70;;;3.90;99.90;;;;;;5085397;28;20184;-89
2023/10/22 06:19:41;;;;;;;7.40;3.35;;;3.90;99.90;;;;;;5077118;28;20623;-88
2023/10/22 06:22:09;;;;;;;18.77;4.10;;;3.90;99.90;;;;;;5080257;28;20257;-88
2023/10/22 06:24:36;;;;;;;40.38;5.35;;;3.90;99.90;;;;;;5069637;28;20196;-88
2023/10/22 06:27:04;;;;;;;40.08;5.25;;;4.00;99.90;;;;;;5068798;28;20278;-87
2023/10/22 06:29:32;;;;;;;10.70;3.78;;;3.90;99.90;;;;;;5051412;28;20185;-86
2023/10/22 06:32:01;;;;;;;15.80;3.92;;;3.90;99.90;;;;;;5080288;28;20936;-88
2023/10/22 06:34:31;;;;;;;22.08;4.43;;;4.00;99.90;;;;;;5079925;28;20223;-87
2023/10/22 06:36:59;;;;;;;14.13;3.70;;;3.90;99.90;;;;;;5085046;28;20207;-86
2023/10/22 06:39:27;;;;;;;12.93;3.38;;;4.00;99.90;;;;;;5084835;28;20269;-88
2023/10/22 06:41:54;;;;;;;19.15;3.63;;;4.00;99.90;;;;;;5073036;28;20184;-89
2023/10/22 06:44:24;;;;;;;21.17;3.78;;;4.00;99.90;;;;;;5065511;28;20185;-89
2023/10/22 06:46:52;;;;;;;25.25;3.92;;;4.00;99.90;;;;;;5087677;28;20195;-89
2023/10/22 06:49:20;;;;;;;5.65;3.13;;;4.10;99.90;;;;;;5080754;28;20283;-87
2023/10/22 06:51:47;;;;;;;5.07;3.05;;;4.00;99.90;;;;;;5084898;28;20271;-87
2023/10/22 06:54:15;;;;;;;5.80;3.22;;;4.00;99.90;;;;;;5080375;28;20192;-88
2023/10/22 06:56:43;;;;;;;12.32;3.60;;;4.10;99.90;;;;;;5082285;28;20188;-88
2023/10/22 06:59:11;;;;;;;4.20;2.65;;;4.10;99.90;;;;;;5081610;28;20271;-89
2023/10/22 07:01:38;;;;;;;21.00;4.40;;;4.10;99.90;;;;;;5067229;28;20195;-88
2023/10/22 07:04:06;;;;;;;4.18;2.63;;;4.10;99.90;;;;;;5079736;28;20234;-89
2023/10/22 07:06:35;;;;;;;80.45;7.63;;;4.10;99.90;;;;;;5063166;28;20196;-87
2023/10/22 07:09:03;;;;;;;7.05;3.42;;;4.20;99.90;;;;;;5074189;28;20185;-88
2023/10/22 07:11:33;;;;;;;7.40;3.40;;;4.20;99.90;;;;;;5072747;28;20650;-88
2023/10/22 07:14:02;;;;;;;75.38;7.25;;;4.20;99.90;;;;;;5064956;28;20245;-87
2023/10/22 07:16:34;;;;;;;27.20;4.93;;;4.20;99.90;;;;;;5059362;28;20200;-89
2023/10/22 07:19:02;;;;;;;82.45;8.25;;;4.20;99.90;;;;;;5072663;28;20184;-88
2023/10/22 07:21:32;;;;;;;54.38;4.75;;;4.20;99.90;;;;;;5082440;28;20187;-89
2023/10/22 07:24:00;;;;;;;6.95;3.83;;;4.20;99.90;;;;;;5077018;28;20214;-87
2023/10/22 07:26:30;;;;;;;5.15;3.00;;;4.20;99.90;;;;;;5077580;28;20276;-86
2023/10/22 07:29:01;;;;;;;35.67;5.68;;;4.20;99.90;;;;;;5082229;28;20665;-86
2023/10/22 07:31:30;;;;;;;34.00;5.75;;;4.20;99.90;;;;;;5063220;28;20205;-87
2023/10/22 07:33:59;;;;;;;5.40;3.17;;;4.20;99.90;;;;;;5080611;28;20255;-88
2023/10/22 07:36:28;;;;;;;28.67;5.45;;;4.20;99.90;;;;;;5073925;28;20282;-87
2023/10/22 07:38:57;;;;;;;21.65;4.68;;;4.30;99.90;;;;;;5082615;28;20201;-86
2023/10/22 07:41:27;;;;;;;11.95;3.97;;;4.30;99.90;;;;;;5065336;28;20638;-88
2023/10/22 07:43:54;;;;;;;27.30;5.43;;;4.30;99.90;;;;;;5082102;28;20275;-89
2023/10/22 07:46:23;;;;;;;65.50;6.25;;;4.30;99.90;;;;;;5069350;28;20195;-88
2023/10/22 07:48:52;;;;;;;46.53;6.35;;;4.30;99.90;;;;;;5086747;28;20192;-86
2023/10/22 07:51:24;;;;;;;16.85;4.65;;;4.40;99.90;;;;;;5082611;28;20660;-87
2023/10/22 07:53:55;;;;;;;17.10;4.60;;;4.30;99.90;;;;;;5084549;28;20184;-88
2023/10/22 07:56:27;;;;;;;12.60;3.95;;;4.30;99.90;;;;;;5081170;28;20208;-87
2023/10/22 07:58:57;;;;;;;8.80;3.50;;;4.30;99.90;;;;;;5087598;28;20912;-87
2023/10/22 08:01:30;;;;;;;75.20;8.80;;;4.30;99.90;;;;;;5070216;28;20580;-88
2023/10/22 08:04:00;;;;;;;31.17;5.20;;;4.40;99.90;;;;;;5080279;28;20188;-86
2023/10/22 08:06:30;;;;;;;35.80;5.55;;;4.40;99.90;;;;;;5085168;28;20257;-88
2023/10/22 08:09:02;;;;;;;12.20;4.20;;;4.40;99.90;;;;;;5070337;28;20187;-89
2023/10/22 08:11:34;;;;;;;164.23;13.05;;;4.40;99.90;;;;;;5080905;28;20745;-89
2023/10/22 08:14:07;;;;;;;118.10;9.75;;;4.50;99.90;;;;;;5083807;28;20191;-89
2023/10/22 08:16:37;;;;;;;11.65;5.32;;;4.50;99.90;;;;;;5068720;28;20291;-89
2023/10/22 08:19:05;;;;;;;210.98;90.68;;;4.50;99.90;;;;;;5071507;28;20191;-88
2023/10/22 08:21:41;;;;;;;47.30;37.97;;;4.50;99.90;;;;;;5083852;28;20225;-89
2023/10/22 08:24:15;;;;;;;126.20;97.72;;;4.50;99.90;;;;;;5071023;28;21226;-87
2023/10/22 08:26:46;;;;;;;191.85;131.75;;;4.50;99.90;;;;;;5083318;28;20195;-88
2023/10/22 08:29:20;;;;;;;63.10;40.08;;;4.60;99.90;;;;;;5085000;28;20194;-87
2023/10/22 08:31:50;;;;;;;42.22;26.52;;;4.50;99.90;;;;;;5085629;28;20188;-87
2023/10/22 08:34:22;;;;;;;45.08;18.48;;;4.50;99.90;;;;;;5100287;28;20306;-87
2023/10/22 08:36:51;;;;;;;72.35;15.88;;;4.50;99.90;;;;;;5080700;28;20192;-89
2023/10/22 08:39:20;;;;;;;63.90;11.40;;;4.60;99.90;;;;;;5085915;28;20180;-88
2023/10/22 08:42:00;;;;;;;33.78;15.43;;;4.60;99.90;;;;;;5067237;28;20183;-87
2023/10/22 08:44:33;;;;;;;92.28;21.77;;;4.70;99.90;;;;;;5083110;28;20172;-89
2023/10/22 08:47:07;;;;;;;13.32;7.07;;;4.70;99.90;;;;;;5064136;28;20659;-88
2023/10/22 08:49:40;;;;;;;38.25;8.00;;;4.70;99.90;;;;;;5081837;28;20525;-88
2023/10/22 08:52:14;;;;;;;51.60;23.75;;;4.70;99.90;;;;;;5064552;28;20666;-88
2023/10/22 08:54:47;;;;;;;106.00;35.40;;;4.70;99.90;;;;;;5062122;28;20299;-86
2023/10/22 08:57:24;;;;;;;59.53;30.50;;;4.80;99.90;;;;;;5079657;28;20697;-87
2023/10/22 08:59:52;;;;;;;28.83;16.75;;;4.70;99.90;;;;;;5081715;28;20517;-89
2023/10/22 09:02:26;;;;;;;31.23;8.80;;;4.80;99.90;;;;;;5073989;28;20183;-89
2023/10/22 09:04:57;;;;;;;18.63;9.38;;;4.80;99.90;;;;;;5083551;28;20184;-87
2023/10/22 09:07:50;;;;;;;48.20;25.38;;;4.80;99.90;;;;;;5083227;28;20211;-87
2023/10/22 09:10:30;;;;;;;23.77;19.50;;;4.90;99.90;;;;;;5067795;28;20901;-87
2023/10/22 09:13:21;;;;;;;38.55;11.32;;;4.90;99.90;;;;;;5054120;28;20194;-87
2023/10/22 09:15:54;;;;;;;12.20;6.20;;;4.90;99.90;;;;;;5073452;28;20207;-88
2023/10/22 09:18:42;;;;;;;18.23;7.85;;;4.80;99.90;;;;;;5085040;28;20176;-87
2023/10/22 09:21:14;;;;;;;31.23;9.93;;;4.90;99.90;;;;;;5084200;28;20176;-87
2023/10/22 09:24:05;;;;;;;19.08;7.90;;;4.90;99.90;;;;;;5084085;28;20263;-87
2023/10/22 09:26:48;;;;;;;33.03;11.50;;;4.90;99.90;;;;;;5078572;28;20192;-87
2023/10/22 09:29:17;;;;;;;27.75;7.40;;;5.00;99.90;;;;;;5069846;28;20187;-87
2023/10/22 09:31:53;;;;;;;13.98;7.50;;;5.00;99.90;;;;;;5081172;28;20196;-86
2023/10/22 09:34:28;;;;;;;19.75;6.50;;;5.00;99.90;;;;;;5083873;28;20269;-86
2023/10/22 09:36:57;;;;;;;12.68;6.18;;;5.00;99.90;;;;;;5080913;28;20772;-82
2023/10/22 09:39:42;;;;;;;28.65;8.88;;;5.00;99.90;;;;;;5054581;28;20253;-85
2023/10/22 09:42:13;;;;;;;12.90;6.05;;;5.00;99.90;;;;;;5077957;28;20206;-90
2023/10/22 09:44:44;;;;;;;91.40;22.85;;;5.00;99.90;;;;;;5083705;28;20184;-90
2023/10/22 09:47:21;;;;;;;98.47;13.23;;;5.00;99.90;;;;;;5067146;28;20192;-87
2023/10/22 09:50:02;;;;;;;94.07;15.25;;;5.00;99.90;;;;;;5084430;28;20201;-88
2023/10/22 09:52:35;;;;;;;15.65;9.07;;;5.10;99.90;;;;;;5074789;28;20672;-89
2023/10/22 09:55:06;;;;;;;15.75;6.75;;;5.10;99.90;;;;;;5071705;28;20193;-91
2023/10/22 09:57:34;;;;;;;48.25;7.68;;;5.10;99.90;;;;;;5065300;28;20747;-90
2023/10/22 10:00:10;;;;;;;70.00;9.75;;;5.10;99.90;;;;;;5062268;28;20193;-88
2023/10/22 10:02:38;;;;;;;12.43;7.32;;;5.10;99.90;;;;;;5076020;28;20184;-92
2023/10/22 10:05:12;;;;;;;163.50;15.02;;;5.10;99.90;;;;;;5088445;28;20188;-91
2023/10/22 10:07:40;;;;;;;80.47;10.70;;;5.10;99.90;;;;;;5068842;28;20192;-95
2023/10/22 10:10:10;;;;;;;51.05;7.85;;;5.20;99.90;;;;;;5085373;28;20188;-92
2023/10/22 10:12:40;;;;;;;31.65;7.25;;;5.20;99.90;;;;;;5087176;28;20180;-88
2023/10/22 10:15:28;;;;;;;15.45;6.90;;;5.20;99.90;;;;;;5087350;28;20172;-92
2023/10/22 10:17:57;;;;;;;19.25;9.82;;;5.20;99.90;;;;;;5064059;28;20207;-92
2023/10/22 10:20:27;;;;;;;58.30;27.52;;;5.20;99.90;;;;;;5065469;28;20196;-91
2023/10/22 10:23:09;;;;;;;70.07;17.38;;;5.20;99.90;;;;;;5067043;28;20678;-91
2023/10/22 10:25:41;;;;;;;31.48;11.77;;;5.30;99.90;;;;;;5076528;28;20309;-91
2023/10/22 10:28:10;;;;;;;47.75;11.52;;;5.20;99.90;;;;;;5075720;28;20438;-89
2023/10/22 10:30:39;;;;;;;21.50;11.40;;;5.20;99.90;;;;;;5064784;28;20192;-89
2023/10/22 10:33:09;;;;;;;35.13;11.80;;;5.20;99.90;;;;;;5066593;28;20244;-89
2023/10/22 10:35:48;;;;;;;115.60;89.45;;;5.20;99.90;;;;;;5079619;28;20346;-89
2023/10/22 10:38:19;;;;;;;36.67;13.70;;;5.30;99.90;;;;;;5068968;28;20192;-89
2023/10/22 10:40:49;;;;;;;56.92;11.65;;;5.30;99.90;;;;;;5081365;28;20192;-90
2023/10/22 10:43:20;;;;;;;27.80;8.95;;;5.30;99.90;;;;;;5073138;28;20226;-89
2023/10/22 10:46:26;;;;;;;14.80;7.60;;;5.30;99.90;;;;;;5054076;28;20265;-90
2023/10/22 10:48:55;;;;;;;35.50;15.60;;;5.30;99.90;;;;;;5056898;28;20277;-89
2023/10/22 10:51:24;;;;;;;37.88;21.08;;;5.30;99.90;;;;;;5074988;28;20192;-88
2023/10/22 10:54:12;;;;;;;76.20;17.02;;;5.30;99.90;;;;;;5081307;28;20192;-90
2023/10/22 10:56:50;;;;;;;33.70;13.30;;;5.40;99.90;;;;;;5076891;28;20212;-90
2023/10/22 10:59:31;;;;;;;86.15;18.42;;;5.40;99.90;;;;;;5083300;28;20275;-91
2023/10/22 11:02:04;;;;;;;16.25;8.30;;;5.40;99.90;;;;;;5049157;28;20272;-90
2023/10/22 11:04:32;;;;;;;34.45;9.20;;;5.40;99.90;;;;;;5079658;28;20543;-90
2023/10/22 11:07:01;;;;;;;14.80;7.40;;;5.40;99.90;;;;;;5064791;28;20579;-91
2023/10/22 11:09:46;;;;;;;31.10;8.05;;;5.40;99.90;;;;;;5066909;28;20204;-90
2023/10/22 11:12:14;;;;;;;89.15;18.20;;;5.40;99.90;;;;;;5082152;28;20254;-90
2023/10/22 11:14:43;;;;;;;44.00;12.50;;;5.40;99.90;;;;;;5082061;28;20193;-89
2023/10/22 11:17:11;;;;;;;80.05;10.38;;;5.40;99.90;;;;;;5064773;28;20236;-90
2023/10/22 11:19:39;;;;;;;12.55;7.30;;;5.50;99.90;;;;;;5081042;28;20869;-89
2023/10/22 11:22:12;;;;;;;24.27;13.40;;;5.40;99.90;;;;;;5062866;28;20188;-90
2023/10/22 11:24:40;;;;;;;49.42;11.93;;;5.40;99.90;;;;;;5082840;28;20227;-89
2023/10/22 11:27:09;;;;;;;23.15;8.18;;;5.40;99.90;;;;;;5072478;28;20196;-90
2023/10/22 11:29:50;;;;;;;52.17;12.45;;;5.40;99.90;;;;;;5088526;28;20227;-91
2023/10/22 11:32:21;;;;;;;23.40;12.43;;;5.40;99.90;;;;;;5081825;28;20676;-91
2023/10/22 11:34:54;;;;;;;46.17;13.25;;;5.50;99.90;;;;;;5086936;28;20231;-90
2023/10/22 11:37:28;;;;;;;17.95;10.55;;;5.50;99.90;;;;;;5076185;28;21048;-91
2023/10/22 11:39:57;;;;;;;44.67;16.60;;;5.50;99.90;;;;;;5075035;28;20195;-89
2023/10/22 11:42:32;;;;;;;13.85;8.05;;;5.50;99.90;;;;;;5085114;28;20211;-88
2023/10/22 11:45:00;;;;;;;56.40;10.88;;;5.50;99.90;;;;;;5082098;28;20286;-89
2023/10/22 11:47:33;;;;;;;55.67;16.17;;;5.50;99.90;;;;;;5084219;28;20189;-89
2023/10/22 11:50:02;;;;;;;35.53;13.82;;;5.50;99.90;;;;;;5069240;28;20188;-88
2023/10/22 11:52:46;;;;;;;24.50;13.50;;;5.50;99.90;;;;;;5083790;28;20204;-89
2023/10/22 11:55:14;;;;;;;45.85;12.23;;;5.50;99.90;;;;;;5067306;28;20196;-89
2023/10/22 11:58:03;;;;;;;122.22;17.67;;;5.50;99.90;;;;;;5063695;28;20198;-86
2023/10/22 12:00:30;;;;;;;69.53;14.60;;;5.50;99.90;;;;;;5066588;28;20189;-90
2023/10/22 12:02:58;;;;;;;119.10;17.63;;;5.60;99.90;;;;;;5083742;28;20757;-89
2023/10/22 12:05:26;;;;;;;138.90;15.40;;;5.60;99.90;;;;;;5069611;28;20211;-89
2023/10/22 12:07:54;;;;;;;22.45;9.68;;;5.60;99.90;;;;;;5075361;28;20192;-89
2023/10/22 12:10:22;;;;;;;75.95;13.15;;;5.60;99.90;;;;;;5068402;28;20284;-90
2023/10/22 12:12:50;;;;;;;57.50;11.68;;;5.60;99.90;;;;;;5062514;28;20642;-88
2023/10/22 12:15:17;;;;;;;37.38;16.42;;;5.60;99.90;;;;;;5071063;28;20196;-89
2023/10/22 12:17:45;;;;;;;82.32;11.30;;;5.50;99.90;;;;;;5062345;28;21031;-89
2023/10/22 12:20:13;;;;;;;42.60;13.32;;;5.60;99.90;;;;;;5056366;28;20202;-90
2023/10/22 12:22:41;;;;;;;73.15;17.90;;;5.60;99.90;;;;;;5078989;28;20188;-89
2023/10/22 12:25:09;;;;;;;39.58;12.20;;;5.60;99.90;;;;;;5067040;28;20250;-89
2023/10/22 12:27:37;;;;;;;58.22;12.40;;;5.60;99.90;;;;;;5068196;28;20200;-90
2023/10/22 12:30:06;;;;;;;27.13;10.88;;;5.60;99.90;;;;;;5066397;28;20230;-90
2023/10/22 12:32:34;;;;;;;107.40;21.42;;;5.50;99.90;;;;;;5082273;28;20196;-90
2023/10/22 12:35:02;;;;;;;102.75;15.02;;;5.60;99.90;;;;;;5082292;28;20236;-89
2023/10/22 12:37:29;;;;;;;74.20;14.77;;;5.60;99.90;;;;;;5072753;28;20220;-91
2023/10/22 12:39:57;;;;;;;75.95;17.63;;;5.60;99.90;;;;;;5085630;28;20180;-90
2023/10/22 12:42:25;;;;;;;60.70;14.55;;;5.60;99.90;;;;;;5075559;28;20191;-90
2023/10/22 12:44:52;;;;;;;64.10;16.45;;;5.60;99.90;;;;;;5072065;28;20176;-90
2023/10/22 12:47:20;;;;;;;26.75;12.82;;;5.60;99.90;;;;;;5083985;28;20188;-89
2023/10/22 12:49:48;;;;;;;19.25;10.27;;;5.60;99.90;;;;;;5066451;28;20632;-90
2023/10/22 12:52:16;;;;;;;44.65;12.35;;;5.60;99.90;;;;;;5081907;28;20200;-89
2023/10/22 12:54:44;;;;;;;24.10;12.15;;;5.60;99.90;;;;;;5070372;28;20245;-90
2023/10/22 12:57:14;;;;;;;33.28;11.90;;;5.60;99.90;;;;;;5083278;28;20212;-89
2023/10/22 12:59:42;;;;;;;36.28;13.48;;;5.60;99.90;;;;;;5068277;28;20257;-90
2023/10/22 13:02:10;;;;;;;59.67;22.15;;;5.60;99.90;;;;;;5086695;28;20564;-90